Time;durP1;ratioP1;P1;durP2;ratioP2;P2;SDS_P1;SDS_P2;PMS_P1;PMS_P2;Temp;Humidity;BMP_temperature;BMP_pressure;BME280_temperature;BME280_humidity;BME280_pressure;Samples;Min_cycle;Max_cycle;Signal;HPM_P1;HPM_P2
2022/04/14 00:00:14;;;;;;;5.20;1.77;;;11.20;99.90;;;;;;5076438;28;20036;-78
2022/04/14 00:02:40;;;;;;;4.53;2.10;;;11.20;99.90;;;;;;5103564;27;20482;-78
2022/04/14 00:05:07;;;;;;;3.58;1.63;;;11.20;99.90;;;;;;5074006;28;20047;-78
2022/04/14 00:07:33;;;;;;;4.95;2.10;;;11.20;99.90;;;;;;5066565;28;20032;-78
2022/04/14 00:09:58;;;;;;;3.13;1.90;;;11.20;99.90;;;;;;5066797;28;20032;-78
2022/04/14 00:12:24;;;;;;;9.13;2.03;;;11.20;99.90;;;;;;5090427;28;20044;-78
2022/04/14 00:14:50;;;;;;;6.53;2.00;;;11.20;99.90;;;;;;5057901;28;20052;-78
2022/04/14 00:17:15;;;;;;;3.47;1.73;;;11.20;99.90;;;;;;5102129;27;20146;-77
2022/04/14 00:19:41;;;;;;;2.78;1.52;;;11.20;99.90;;;;;;5068018;28;20372;-78
2022/04/14 00:22:07;;;;;;;3.60;1.63;;;11.10;99.90;;;;;;5072216;28;20039;-78
2022/04/14 00:24:33;;;;;;;3.03;1.73;;;11.20;99.90;;;;;;5061947;28;20039;-78
2022/04/14 00:26:58;;;;;;;5.28;2.00;;;11.10;99.90;;;;;;5069671;28;20036;-78
2022/04/14 00:29:24;;;;;;;3.42;1.55;;;11.10;99.90;;;;;;5067813;28;20654;-78
2022/04/14 00:31:50;;;;;;;2.95;1.70;;;11.10;99.90;;;;;;5100893;28;20379;-78
2022/04/14 00:34:16;;;;;;;4.28;2.05;;;11.10;99.90;;;;;;5084678;28;20040;-78
2022/04/14 00:36:41;;;;;;;6.38;2.03;;;11.10;99.90;;;;;;5057483;28;20044;-78
2022/04/14 00:39:09;;;;;;;3.80;1.67;;;11.10;99.90;;;;;;5075858;28;20036;-78
2022/04/14 00:41:36;;;;;;;5.88;1.95;;;11.10;99.90;;;;;;5072182;28;20033;-78
2022/04/14 00:44:02;;;;;;;5.43;2.60;;;11.10;99.90;;;;;;5104752;27;20032;-78
2022/04/14 00:46:27;;;;;;;3.80;1.95;;;11.10;99.90;;;;;;5105957;27;20086;-78
2022/04/14 00:48:53;;;;;;;4.90;2.08;;;11.10;99.90;;;;;;5071033;28;20061;-78
2022/04/14 00:51:19;;;;;;;4.43;2.20;;;11.00;99.90;;;;;;5080978;28;20040;-77
2022/04/14 00:53:44;;;;;;;4.40;2.50;;;11.00;99.90;;;;;;5074532;28;20028;-78
2022/04/14 00:56:10;;;;;;;4.60;2.03;;;11.00;99.90;;;;;;5103199;27;20032;-77
2022/04/14 00:58:36;;;;;;;3.50;1.92;;;11.00;99.90;;;;;;5059148;28;20031;-78
2022/04/14 01:01:05;;;;;;;3.95;2.08;;;11.00;99.90;;;;;;5056278;28;20107;-78
2022/04/14 01:03:31;;;;;;;4.40;1.90;;;11.00;99.90;;;;;;5068830;28;20085;-78
2022/04/14 01:05:59;;;;;;;4.50;2.17;;;11.00;99.90;;;;;;5069966;28;20503;-78
2022/04/14 01:08:27;;;;;;;3.83;1.90;;;10.90;99.90;;;;;;5082227;28;20043;-78
2022/04/14 01:10:54;;;;;;;5.78;2.25;;;10.90;99.90;;;;;;5071153;28;20471;-78
2022/04/14 01:13:20;;;;;;;2.58;1.70;;;10.90;99.90;;;;;;5110946;27;20143;-78
2022/04/14 01:15:48;;;;;;;5.50;2.25;;;10.90;99.90;;;;;;5060134;28;20558;-78
2022/04/14 01:18:14;;;;;;;8.35;2.35;;;10.80;99.90;;;;;;5101406;27;20170;-78
2022/04/14 01:20:42;;;;;;;3.60;1.98;;;10.80;99.90;;;;;;5089245;28;20499;-78
2022/04/14 01:23:09;;;;;;;4.25;2.30;;;10.80;99.90;;;;;;5101721;27;20090;-78
2022/04/14 01:25:36;;;;;;;7.20;2.47;;;10.80;99.90;;;;;;5109094;27;20188;-78
2022/04/14 01:28:03;;;;;;;5.57;2.50;;;10.80;99.90;;;;;;5074757;28;20326;-78
2022/04/14 01:30:30;;;;;;;4.03;2.25;;;10.80;99.90;;;;;;5100358;27;20454;-78
2022/04/14 01:32:55;;;;;;;4.25;2.22;;;10.70;99.90;;;;;;5056171;28;20567;-78
2022/04/14 01:35:22;;;;;;;4.88;2.53;;;10.70;99.90;;;;;;5074020;28;20280;-78
2022/04/14 01:37:48;;;;;;;5.88;2.38;;;10.70;99.90;;;;;;5054174;28;20044;-78
2022/04/14 01:40:14;;;;;;;3.92;2.00;;;10.70;99.90;;;;;;5102804;27;20040;-77
2022/04/14 01:42:40;;;;;;;4.85;2.15;;;10.70;99.90;;;;;;5068185;28;20418;-78
2022/04/14 01:45:07;;;;;;;3.50;2.17;;;10.60;99.90;;;;;;5106075;27;20114;-78
2022/04/14 01:47:41;;;;;;;5.45;2.40;;;10.70;99.90;;;;;;5070775;28;20039;-78
2022/04/14 01:50:08;;;;;;;7.47;2.25;;;10.60;99.90;;;;;;5063612;28;20045;-78
2022/04/14 01:52:34;;;;;;;4.57;2.58;;;10.50;99.90;;;;;;5102832;27;20490;-78
2022/04/14 01:55:00;;;;;;;5.53;2.67;;;10.50;99.90;;;;;;5087400;28;20060;-78
2022/04/14 01:57:26;;;;;;;4.53;2.67;;;10.50;99.90;;;;;;5070190;28;20047;-78
2022/04/14 01:59:51;;;;;;;4.22;2.72;;;10.50;99.90;;;;;;5068434;28;20029;-78
2022/04/14 02:02:17;;;;;;;7.18;3.25;;;10.50;99.90;;;;;;5066945;28;20036;-78
2022/04/14 02:04:42;;;;;;;8.00;2.95;;;10.50;99.90;;;;;;5071662;28;20075;-78
2022/04/14 02:07:09;;;;;;;4.32;2.50;;;10.50;99.90;;;;;;5067993;28;20044;-78
2022/04/14 02:09:35;;;;;;;6.35;2.58;;;10.50;99.90;;;;;;5090882;28;20032;-78
2022/04/14 02:12:01;;;;;;;5.47;2.97;;;10.50;99.90;;;;;;5112512;27;20039;-78
2022/04/14 02:14:26;;;;;;;6.40;3.13;;;10.50;99.90;;;;;;5053799;28;20059;-78
2022/04/14 02:16:53;;;;;;;6.60;2.90;;;10.50;99.90;;;;;;5070819;28;20032;-78
2022/04/14 02:19:19;;;;;;;5.78;3.33;;;10.50;99.90;;;;;;5068197;28;20072;-78
2022/04/14 02:21:44;;;;;;;6.55;3.22;;;10.50;99.90;;;;;;5065709;28;20060;-78
2022/04/14 02:24:10;;;;;;;8.73;3.40;;;10.50;99.90;;;;;;5101004;27;20032;-78
2022/04/14 02:26:35;;;;;;;6.63;3.95;;;10.50;99.90;;;;;;5071576;28;20035;-78
2022/04/14 02:29:01;;;;;;;8.77;3.17;;;10.50;99.90;;;;;;5050107;28;20064;-78
2022/04/14 02:31:26;;;;;;;4.88;3.15;;;10.50;99.90;;;;;;5078175;28;20058;-78
2022/04/14 02:33:52;;;;;;;5.93;3.15;;;10.40;99.90;;;;;;5052640;28;20124;-78
2022/04/14 02:36:18;;;;;;;8.88;2.92;;;10.40;99.90;;;;;;5073569;28;20417;-78
2022/04/14 02:38:45;;;;;;;5.95;3.03;;;10.40;99.90;;;;;;5073975;28;20193;-78
2022/04/14 02:41:10;;;;;;;6.40;3.30;;;10.30;99.90;;;;;;5107807;28;20044;-78
2022/04/14 02:43:39;;;;;;;8.90;3.67;;;10.30;99.90;;;;;;5055525;28;20032;-78
2022/04/14 02:46:05;;;;;;;5.55;3.25;;;10.30;99.90;;;;;;5055696;28;20511;-78
2022/04/14 02:48:31;;;;;;;11.98;4.18;;;10.30;99.90;;;;;;5074143;28;20542;-78
2022/04/14 02:50:57;;;;;;;9.23;4.30;;;10.30;99.90;;;;;;5076652;28;20501;-78
2022/04/14 02:53:22;;;;;;;7.63;4.05;;;10.30;99.90;;;;;;5070056;28;20060;-78
2022/04/14 02:55:48;;;;;;;7.55;4.13;;;10.30;99.90;;;;;;5075972;28;20040;-78
2022/04/14 02:58:15;;;;;;;8.38;4.47;;;10.30;99.90;;;;;;5070147;28;20036;-78
2022/04/14 03:00:40;;;;;;;7.40;3.63;;;10.30;99.90;;;;;;5070135;28;20040;-78
2022/04/14 03:03:06;;;;;;;6.45;3.90;;;10.30;99.90;;;;;;5110855;27;20051;-78
2022/04/14 03:05:32;;;;;;;9.13;4.32;;;10.20;99.90;;;;;;5073602;28;20131;-78
2022/04/14 03:07:57;;;;;;;11.45;3.90;;;10.20;99.90;;;;;;5077443;28;20040;-78
2022/04/14 03:10:23;;;;;;;6.93;4.13;;;10.20;99.90;;;;;;5070949;28;20175;-78
2022/04/14 03:12:50;;;;;;;10.30;3.65;;;10.20;99.90;;;;;;5063017;28;20559;-78
2022/04/14 03:15:16;;;;;;;5.68;3.67;;;10.10;99.90;;;;;;5075017;28;20051;-78
2022/04/14 03:17:42;;;;;;;8.02;3.35;;;10.10;99.90;;;;;;5105271;27;20032;-78
2022/04/14 03:20:09;;;;;;;8.90;4.05;;;10.10;99.90;;;;;;5115570;27;20086;-78
2022/04/14 03:22:35;;;;;;;8.50;4.78;;;10.10;99.90;;;;;;5103664;28;20478;-78
2022/04/14 03:25:06;;;;;;;6.38;3.53;;;10.10;99.90;;;;;;5104716;27;20446;-78
2022/04/14 03:27:32;;;;;;;6.82;4.25;;;10.00;99.90;;;;;;5105803;27;20046;-78
2022/04/14 03:29:57;;;;;;;10.27;4.20;;;10.00;99.90;;;;;;5070034;28;20045;-78
2022/04/14 03:32:24;;;;;;;11.10;5.38;;;10.00;99.90;;;;;;5077957;28;20036;-78
2022/04/14 03:34:50;;;;;;;6.82;4.20;;;9.90;99.90;;;;;;5071113;28;20068;-78
2022/04/14 03:37:16;;;;;;;7.65;4.18;;;9.90;99.90;;;;;;5103748;27;20047;-78
2022/04/14 03:39:41;;;;;;;8.95;3.80;;;9.90;99.90;;;;;;5071504;28;20489;-78
2022/04/14 03:42:07;;;;;;;8.68;4.20;;;9.90;99.90;;;;;;5070899;28;20044;-78
2022/04/14 03:44:33;;;;;;;9.38;4.78;;;9.90;99.90;;;;;;5056532;28;20032;-78
2022/04/14 03:46:58;;;;;;;7.00;4.38;;;9.80;99.90;;;;;;5101984;27;20493;-78
2022/04/14 03:49:24;;;;;;;9.07;4.90;;;9.80;99.90;;;;;;5065337;28;20125;-78
2022/04/14 03:51:52;;;;;;;9.25;4.45;;;9.90;99.90;;;;;;5072940;28;20048;-78
2022/04/14 03:54:17;;;;;;;9.52;4.55;;;9.80;99.90;;;;;;5068375;28;20139;-78
2022/04/14 03:56:46;;;;;;;8.18;4.38;;;9.80;99.90;;;;;;5051975;28;20100;-78
2022/04/14 03:59:13;;;;;;;8.30;4.70;;;9.80;99.90;;;;;;5101146;27;20451;-78
2022/04/14 04:01:39;;;;;;;7.00;4.18;;;9.80;99.90;;;;;;5050816;28;20035;-78
2022/04/14 04:04:04;;;;;;;10.35;4.35;;;9.80;99.90;;;;;;5104900;27;20518;-78
2022/04/14 04:06:30;;;;;;;7.47;4.10;;;9.70;99.90;;;;;;5081271;28;20089;-78
2022/04/14 04:08:56;;;;;;;6.93;4.05;;;9.70;99.90;;;;;;5105681;27;20079;-78
2022/04/14 04:11:21;;;;;;;11.57;5.20;;;9.70;99.90;;;;;;5087180;28;20032;-78
2022/04/14 04:13:47;;;;;;;10.98;4.55;;;9.60;99.90;;;;;;5092837;28;20455;-78
2022/04/14 04:16:12;;;;;;;6.60;4.15;;;9.60;99.90;;;;;;5072889;28;20139;-78
2022/04/14 04:18:38;;;;;;;7.90;4.55;;;9.50;99.90;;;;;;5113167;27;20055;-78
2022/04/14 04:21:04;;;;;;;6.07;4.10;;;9.50;99.90;;;;;;5053347;28;20036;-78
2022/04/14 04:23:30;;;;;;;7.65;3.85;;;9.40;99.90;;;;;;5107754;27;20135;-78
2022/04/14 04:25:55;;;;;;;7.95;4.45;;;9.40;99.90;;;;;;5058184;28;20509;-78
2022/04/14 04:28:21;;;;;;;7.82;4.35;;;9.40;99.90;;;;;;5071819;28;20082;-78
2022/04/14 04:30:47;;;;;;;6.65;3.35;;;9.30;99.90;;;;;;5087859;28;20047;-78
2022/04/14 04:33:12;;;;;;;6.03;3.28;;;9.30;99.90;;;;;;5069317;28;20143;-78
2022/04/14 04:35:38;;;;;;;7.70;3.38;;;9.30;99.90;;;;;;5073639;28;20032;-77
2022/04/14 04:38:04;;;;;;;6.70;3.40;;;9.20;99.90;;;;;;5086002;28;20090;-78
2022/04/14 04:40:30;;;;;;;9.23;4.05;;;9.10;99.90;;;;;;5074063;28;20064;-77
2022/04/14 04:42:56;;;;;;;6.53;4.00;;;9.10;99.90;;;;;;5072411;28;20079;-78
2022/04/14 04:45:21;;;;;;;9.65;4.00;;;9.00;99.90;;;;;;5070897;28;20506;-77
2022/04/14 04:47:47;;;;;;;5.18;3.33;;;9.00;99.90;;;;;;5061952;28;20071;-77
2022/04/14 04:50:13;;;;;;;6.78;3.92;;;9.00;99.90;;;;;;5061400;28;20110;-77
2022/04/14 04:52:38;;;;;;;7.78;3.83;;;9.00;99.90;;;;;;5074989;28;20043;-77
2022/04/14 04:55:04;;;;;;;8.45;4.30;;;9.00;99.90;;;;;;5051376;28;20040;-78
2022/04/14 04:57:30;;;;;;;7.90;4.32;;;9.00;99.90;;;;;;5102945;27;20044;-78
2022/04/14 04:59:55;;;;;;;9.05;4.50;;;9.00;99.90;;;;;;5053412;28;20498;-77
2022/04/14 05:02:21;;;;;;;11.73;4.50;;;9.00;99.90;;;;;;5102395;27;20538;-78
2022/04/14 05:04:47;;;;;;;8.65;4.97;;;9.00;99.90;;;;;;5083685;28;20123;-77
2022/04/14 05:07:12;;;;;;;10.10;5.20;;;9.00;99.90;;;;;;5060137;28;20447;-77
2022/04/14 05:09:38;;;;;;;10.38;4.78;;;9.00;99.90;;;;;;5114604;27;20507;-77
2022/04/14 05:12:05;;;;;;;10.73;5.82;;;9.00;99.90;;;;;;5076343;28;20044;-77
2022/04/14 05:14:30;;;;;;;12.02;4.55;;;9.00;99.90;;;;;;5105041;27;20132;-77
2022/04/14 05:16:56;;;;;;;11.00;5.93;;;9.00;99.90;;;;;;5050970;28;20123;-77
2022/04/14 05:19:21;;;;;;;11.70;5.97;;;9.00;99.90;;;;;;5064333;28;20028;-77
2022/04/14 05:21:48;;;;;;;9.43;4.80;;;9.00;99.90;;;;;;5108196;27;20040;-78
2022/04/14 05:24:14;;;;;;;6.55;4.05;;;9.00;99.90;;;;;;5100810;27;20475;-78
2022/04/14 05:26:40;;;;;;;9.02;5.22;;;9.10;99.90;;;;;;5101096;27;20040;-78
2022/04/14 05:29:07;;;;;;;11.13;5.28;;;9.10;99.90;;;;;;5104959;27;20406;-78
2022/04/14 05:31:33;;;;;;;12.80;5.95;;;9.20;99.90;;;;;;5076912;28;20036;-78
2022/04/14 05:33:58;;;;;;;10.32;5.43;;;9.20;99.90;;;;;;5067081;28;20036;-78
2022/04/14 05:36:24;;;;;;;9.65;5.82;;;9.20;99.90;;;;;;5067396;28;20041;-78
2022/04/14 05:38:50;;;;;;;10.10;5.75;;;9.20;99.90;;;;;;5067075;28;20048;-77
2022/04/14 05:41:15;;;;;;;8.27;4.47;;;9.20;99.90;;;;;;5105406;27;20452;-78
2022/04/14 05:43:41;;;;;;;9.20;5.07;;;9.20;99.90;;;;;;5083878;28;20111;-78
2022/04/14 05:46:07;;;;;;;8.68;5.18;;;9.20;99.90;;;;;;5069157;28;20043;-78
2022/04/14 05:48:32;;;;;;;8.60;4.47;;;9.20;99.90;;;;;;5112555;27;20036;-78
2022/04/14 05:50:58;;;;;;;10.93;5.53;;;9.30;99.90;;;;;;5051548;28;20102;-77
2022/04/14 05:53:26;;;;;;;9.85;5.32;;;9.30;99.90;;;;;;5092416;28;20045;-78
2022/04/14 05:55:52;;;;;;;9.57;5.47;;;9.30;99.90;;;;;;5072856;28;20076;-77
2022/04/14 05:58:18;;;;;;;9.82;5.97;;;9.30;99.90;;;;;;5053966;28;20036;-78
2022/04/14 06:00:44;;;;;;;11.60;5.97;;;9.40;99.90;;;;;;5055953;28;20071;-78
2022/04/14 06:03:09;;;;;;;12.13;6.13;;;9.40;99.90;;;;;;5068955;28;20465;-78
2022/04/14 06:05:35;;;;;;;13.07;6.65;;;9.50;99.90;;;;;;5103555;27;20044;-78
2022/04/14 06:08:01;;;;;;;14.00;7.05;;;9.50;99.90;;;;;;5089759;28;20060;-78
2022/04/14 06:10:28;;;;;;;11.93;6.63;;;9.60;99.90;;;;;;5114117;27;20044;-78
2022/04/14 06:12:57;;;;;;;14.50;7.13;;;9.60;99.90;;;;;;5100375;27;20531;-77
2022/04/14 06:15:23;;;;;;;13.57;6.57;;;9.70;99.90;;;;;;5076216;28;20035;-78
2022/04/14 06:17:50;;;;;;;12.40;7.32;;;9.70;99.90;;;;;;5078897;28;20052;-78
2022/04/14 06:20:15;;;;;;;13.93;7.45;;;9.80;99.90;;;;;;5082292;28;20258;-80
2022/04/14 06:22:42;;;;;;;10.95;6.28;;;9.80;99.90;;;;;;5055823;28;20056;-78
2022/04/14 06:25:22;;;;;;;13.48;6.93;;;9.90;99.90;;;;;;5080697;28;20106;-78
2022/04/14 06:27:48;;;;;;;15.88;7.05;;;9.90;99.90;;;;;;5076120;28;20526;-78
2022/04/14 06:30:17;;;;;;;17.05;6.85;;;10.00;99.90;;;;;;5048950;28;20047;-78
2022/04/14 06:32:54;;;;;;;16.67;7.47;;;10.00;99.90;;;;;;5114302;28;20067;-79
2022/04/14 06:35:20;;;;;;;17.27;7.38;;;10.10;99.90;;;;;;5113287;28;20494;-78
2022/04/14 06:37:45;;;;;;;23.45;7.60;;;10.10;99.90;;;;;;5078377;28;20044;-79
2022/04/14 06:40:11;;;;;;;13.82;6.65;;;10.20;99.90;;;;;;5077259;28;20032;-78
2022/04/14 06:42:37;;;;;;;16.77;7.40;;;10.20;99.90;;;;;;5071350;28;20040;-79
2022/04/14 06:45:03;;;;;;;14.55;7.03;;;10.30;99.90;;;;;;5048637;28;20040;-78
2022/04/14 06:47:29;;;;;;;19.38;7.45;;;10.30;99.90;;;;;;5069210;28;20301;-78
2022/04/14 06:49:54;;;;;;;13.45;6.90;;;10.40;99.90;;;;;;5109716;28;20218;-78
2022/04/14 06:52:21;;;;;;;13.00;6.35;;;10.40;99.90;;;;;;5066748;28;20024;-78
2022/04/14 06:54:47;;;;;;;13.15;6.80;;;10.50;99.90;;;;;;5083618;28;20512;-78
2022/04/14 06:57:13;;;;;;;13.02;6.68;;;10.60;99.90;;;;;;5076733;28;20032;-79
2022/04/14 06:59:38;;;;;;;18.38;6.63;;;10.70;99.90;;;;;;5052375;28;20375;-78
2022/04/14 07:02:04;;;;;;;10.70;6.25;;;10.70;99.90;;;;;;5082413;28;20042;-79
2022/04/14 07:04:30;;;;;;;16.15;6.90;;;10.80;99.90;;;;;;5111973;28;20035;-79
2022/04/14 07:06:55;;;;;;;12.75;6.10;;;10.90;99.90;;;;;;5071899;28;20051;-79
2022/04/14 07:09:21;;;;;;;14.30;6.30;;;11.00;99.90;;;;;;5081548;28;20036;-78
2022/04/14 07:11:47;;;;;;;15.10;6.50;;;11.00;99.90;;;;;;5082111;28;20031;-80
2022/04/14 07:14:14;;;;;;;11.95;5.97;;;11.10;99.90;;;;;;5075644;28;20049;-79
2022/04/14 07:16:41;;;;;;;11.48;5.18;;;11.10;99.90;;;;;;5107614;28;20062;-80
2022/04/14 07:19:06;;;;;;;15.40;6.13;;;11.20;99.90;;;;;;5062661;28;20401;-81
2022/04/14 07:21:32;;;;;;;12.45;6.28;;;11.30;99.90;;;;;;5079232;28;20032;-79
2022/04/14 07:23:57;;;;;;;13.63;6.40;;;11.40;99.90;;;;;;5080027;28;20046;-79
2022/04/14 07:26:23;;;;;;;11.45;6.03;;;11.40;99.90;;;;;;5086139;28;20036;-79
2022/04/14 07:28:49;;;;;;;13.40;5.43;;;11.50;99.90;;;;;;5069718;28;20405;-79
2022/04/14 07:31:14;;;;;;;14.75;6.18;;;11.60;99.90;;;;;;5085325;28;20044;-79
2022/04/14 07:33:41;;;;;;;11.82;5.93;;;11.60;99.90;;;;;;5069582;28;20055;-79
2022/04/14 07:36:07;;;;;;;11.52;5.78;;;11.70;99.90;;;;;;5072321;28;20043;-78
2022/04/14 07:38:32;;;;;;;10.40;5.18;;;11.70;99.90;;;;;;5072627;28;20110;-79
2022/04/14 07:40:58;;;;;;;10.75;5.47;;;11.80;99.90;;;;;;5089205;28;20560;-79
2022/04/14 07:43:24;;;;;;;14.55;6.15;;;11.90;99.90;;;;;;5089605;28;20043;-79
2022/04/14 07:45:50;;;;;;;9.45;5.38;;;11.90;99.90;;;;;;5088180;28;20047;-79
2022/04/14 07:48:21;;;;;;;12.48;5.93;;;12.00;99.90;;;;;;5089539;28;20252;-79
2022/04/14 07:50:48;;;;;;;14.50;4.97;;;12.00;99.90;;;;;;5088783;28;20093;-79
2022/04/14 07:53:13;;;;;;;9.38;4.70;;;12.10;99.90;;;;;;5088421;28;20052;-79
2022/04/14 07:55:39;;;;;;;10.82;4.35;;;12.10;99.90;;;;;;5088404;28;20036;-78
2022/04/14 07:58:09;;;;;;;8.15;3.92;;;12.20;99.90;;;;;;5089102;28;20036;-79
2022/04/14 08:00:36;;;;;;;6.63;3.92;;;12.20;99.90;;;;;;5088094;28;20040;-79
2022/04/14 08:03:03;;;;;;;8.55;4.47;;;12.30;99.90;;;;;;5089062;28;20040;-79
2022/04/14 08:05:50;;;;;;;10.60;4.75;;;12.30;99.90;;;;;;5088813;28;20198;-79
2022/04/14 08:08:17;;;;;;;10.32;5.05;;;12.40;99.90;;;;;;5088497;28;20342;-79
2022/04/14 08:10:45;;;;;;;10.35;4.97;;;12.40;99.90;;;;;;5088371;28;20043;-79
2022/04/14 08:13:11;;;;;;;10.48;5.50;;;12.50;99.90;;;;;;5088571;28;20704;-79
2022/04/14 08:15:39;;;;;;;11.02;5.28;;;12.60;99.90;;;;;;5087182;28;20039;-79
2022/04/14 08:18:06;;;;;;;9.65;4.90;;;12.60;99.90;;;;;;5089155;28;20047;-79
2022/04/14 08:20:33;;;;;;;7.68;4.10;;;12.60;99.90;;;;;;5088952;28;20436;-79
2022/04/14 08:23:00;;;;;;;11.80;5.18;;;12.70;99.90;;;;;;5072013;28;20123;-79
2022/04/14 08:25:27;;;;;;;10.15;4.65;;;12.70;99.90;;;;;;5086383;28;20486;-80
2022/04/14 08:27:53;;;;;;;7.50;3.70;;;12.70;99.90;;;;;;5106846;27;20486;-80
2022/04/14 08:30:21;;;;;;;8.65;4.32;;;12.80;99.90;;;;;;5055504;28;20036;-79
2022/04/14 08:32:48;;;;;;;9.30;4.50;;;12.80;99.90;;;;;;5072701;28;20540;-79
2022/04/14 08:35:15;;;;;;;7.32;3.95;;;12.90;99.90;;;;;;5076290;28;20041;-79
2022/04/14 08:37:42;;;;;;;9.70;4.85;;;12.90;99.90;;;;;;5073903;28;20123;-79
2022/04/14 08:40:11;;;;;;;8.57;4.55;;;13.00;99.90;;;;;;5103511;27;20032;-79
2022/04/14 08:42:39;;;;;;;8.70;4.47;;;13.00;99.90;;;;;;5093269;28;20039;-78
2022/04/14 08:45:11;;;;;;;9.15;4.47;;;13.10;99.90;;;;;;5093393;27;20210;-78
2022/04/14 08:47:39;;;;;;;7.32;3.92;;;13.10;99.90;;;;;;5082396;28;20743;-77
2022/04/14 08:50:06;;;;;;;8.88;4.13;;;13.20;99.90;;;;;;5109389;27;20482;-78
2022/04/14 08:52:34;;;;;;;10.65;4.38;;;13.30;99.90;;;;;;5077063;28;20043;-79
2022/04/14 08:55:02;;;;;;;9.88;4.93;;;13.30;99.90;;;;;;5052883;28;20074;-78
2022/04/14 08:57:30;;;;;;;9.23;4.72;;;13.20;99.90;;;;;;5104789;27;20139;-78
2022/04/14 08:59:57;;;;;;;8.65;4.00;;;13.30;99.90;;;;;;5061163;28;20316;-79
2022/04/14 09:02:23;;;;;;;10.32;4.90;;;13.30;99.90;;;;;;5091479;28;20089;-79
2022/04/14 09:04:52;;;;;;;8.63;4.38;;;13.30;99.90;;;;;;5071419;28;20051;-78
2022/04/14 09:07:18;;;;;;;10.77;4.57;;;13.40;99.90;;;;;;5056964;28;20128;-78
2022/04/14 09:09:44;;;;;;;9.93;4.40;;;13.40;99.90;;;;;;5105757;27;20040;-79
2022/04/14 09:12:13;;;;;;;9.65;4.40;;;13.40;99.90;;;;;;5113142;27;20584;-78
2022/04/14 09:14:40;;;;;;;8.20;4.65;;;13.40;99.90;;;;;;5088984;28;20090;-79
2022/04/14 09:17:06;;;;;;;10.25;4.72;;;13.40;99.90;;;;;;5101664;27;20041;-79
2022/04/14 09:19:34;;;;;;;6.63;3.80;;;13.40;99.90;;;;;;5069861;28;20494;-80
2022/04/14 09:22:18;;;;;;;7.20;3.97;;;13.50;99.90;;;;;;5106300;27;20525;-78
2022/04/14 09:24:55;;;;;;;7.82;4.05;;;13.50;99.90;;;;;;5086328;28;20516;-78
2022/04/14 09:27:29;;;;;;;12.20;4.57;;;13.50;99.90;;;;;;5086530;28;20040;-77
2022/04/14 09:30:03;;;;;;;8.38;4.30;;;13.60;99.90;;;;;;5109549;27;20509;-78
2022/04/14 09:32:45;;;;;;;10.20;4.57;;;13.60;99.90;;;;;;5110727;27;20071;-78
2022/04/14 09:35:22;;;;;;;7.18;4.22;;;13.70;99.90;;;;;;5069472;28;20044;-78
2022/04/14 09:38:07;;;;;;;5.80;3.28;;;13.70;99.90;;;;;;5101219;27;20041;-78
2022/04/14 09:40:37;;;;;;;8.90;4.43;;;13.70;99.90;;;;;;5075096;28;20036;-78
2022/04/14 09:43:04;;;;;;;7.68;4.15;;;13.70;99.90;;;;;;5054635;28;20036;-80
2022/04/14 09:45:30;;;;;;;10.63;4.00;;;13.70;99.90;;;;;;5087843;28;20068;-79
2022/04/14 09:48:03;;;;;;;7.82;4.03;;;13.80;99.90;;;;;;5072175;28;20060;-78
2022/04/14 09:50:39;;;;;;;7.30;3.53;;;13.80;99.90;;;;;;5070390;28;20556;-79
2022/04/14 09:53:07;;;;;;;6.47;4.03;;;13.80;99.90;;;;;;5100053;27;20051;-79
2022/04/14 09:55:35;;;;;;;5.82;3.53;;;13.80;99.90;;;;;;5100962;27;20441;-79
2022/04/14 09:58:18;;;;;;;5.88;3.47;;;13.80;99.90;;;;;;5071760;28;20139;-83
2022/04/14 10:00:54;;;;;;;7.07;3.28;;;13.90;99.90;;;;;;5054770;28;20067;-79
2022/04/14 10:03:25;;;;;;;7.25;3.40;;;14.00;99.90;;;;;;5105901;27;20051;-78
2022/04/14 10:05:58;;;;;;;5.55;2.97;;;14.20;99.90;;;;;;5072599;28;20093;-79
2022/04/14 10:08:25;;;;;;;6.22;3.00;;;14.30;99.90;;;;;;5054825;28;20406;-78
2022/04/14 10:11:04;;;;;;;6.45;3.40;;;14.50;99.90;;;;;;5057101;28;20040;-78
2022/04/14 10:13:38;;;;;;;8.05;2.92;;;14.50;99.90;;;;;;5106043;27;20520;-78
2022/04/14 10:16:05;;;;;;;5.90;3.10;;;14.60;99.90;;;;;;5053760;28;20143;-79
2022/04/14 10:18:32;;;;;;;6.70;3.65;;;14.60;99.90;;;;;;5068890;28;20239;-78
2022/04/14 10:20:58;;;;;;;7.38;2.75;;;14.60;99.90;;;;;;5049280;28;20040;-78
2022/04/14 10:23:26;;;;;;;9.98;2.65;;;14.60;99.90;;;;;;5068097;28;20032;-79
2022/04/14 10:25:53;;;;;;;5.35;2.80;;;14.60;99.90;;;;;;5074435;28;20048;-78
2022/04/14 10:28:20;;;;;;;5.75;3.28;;;14.60;99.90;;;;;;5075433;28;20044;-78
2022/04/14 10:30:49;;;;;;;7.00;3.50;;;14.50;99.90;;;;;;5067468;28;20363;-79
2022/04/14 10:33:14;;;;;;;4.18;2.22;;;14.60;99.90;;;;;;5060857;28;20035;-78
2022/04/14 10:35:40;;;;;;;5.30;2.60;;;14.60;99.90;;;;;;5076603;28;20280;-78
2022/04/14 10:38:30;;;;;;;4.68;3.03;;;14.70;99.90;;;;;;5079197;28;20051;-78
2022/04/14 10:41:14;;;;;;;3.97;2.22;;;14.60;99.90;;;;;;5092532;28;20032;-78
2022/04/14 10:43:46;;;;;;;7.60;3.55;;;14.50;99.90;;;;;;5071549;28;20032;-79
2022/04/14 10:46:15;;;;;;;4.70;2.83;;;14.60;99.90;;;;;;5101558;28;20040;-78
2022/04/14 10:48:41;;;;;;;6.03;3.03;;;14.60;99.90;;;;;;5083823;28;20045;-78
2022/04/14 10:51:19;;;;;;;5.22;2.40;;;14.70;99.90;;;;;;5078318;28;20076;-78
2022/04/14 10:54:00;;;;;;;3.70;2.13;;;14.70;99.90;;;;;;5101518;28;20046;-78
2022/04/14 10:56:37;;;;;;;5.45;2.70;;;14.80;99.90;;;;;;5055508;28;20187;-78
2022/04/14 10:59:11;;;;;;;3.30;1.85;;;14.90;99.90;;;;;;5057025;28;20146;-78
2022/04/14 11:01:45;;;;;;;2.20;1.27;;;15.00;99.90;;;;;;5101719;28;20048;-78
2022/04/14 11:04:26;;;;;;;2.23;1.30;;;15.00;99.90;;;;;;5067783;28;20059;-78
2022/04/14 11:07:13;;;;;;;3.17;1.50;;;15.00;99.90;;;;;;5113888;28;20035;-78
2022/04/14 11:09:38;;;;;;;3.47;1.70;;;15.00;99.90;;;;;;5120111;27;20435;-78
2022/04/14 11:12:08;;;;;;;3.50;1.30;;;15.10;99.90;;;;;;5065223;28;20036;-78
2022/04/14 11:14:44;;;;;;;1.90;0.90;;;15.20;99.90;;;;;;5083683;28;20093;-78
2022/04/14 11:17:48;;;;;;;3.90;1.80;;;15.20;99.90;;;;;;5057872;28;20422;-78
2022/04/14 11:20:53;;;;;;;5.25;1.42;;;15.30;98.90;;;;;;5110653;27;20035;-78
2022/04/14 11:23:24;;;;;;;1.98;1.10;;;15.30;99.90;;;;;;5077838;28;20494;-78
2022/04/14 11:26:00;;;;;;;2.42;1.10;;;15.40;99.90;;;;;;5117120;27;20074;-78
2022/04/14 11:28:33;;;;;;;2.97;1.27;;;15.40;99.90;;;;;;5081921;28;20040;-78
2022/04/14 11:31:00;;;;;;;2.50;1.15;;;15.40;99.90;;;;;;5112323;27;20055;-78
2022/04/14 11:33:31;;;;;;;2.72;1.38;;;15.40;99.90;;;;;;5067711;28;20074;-78
2022/04/14 11:36:11;;;;;;;2.40;1.20;;;15.50;99.90;;;;;;5071693;28;20378;-78
2022/04/14 11:38:58;;;;;;;2.45;1.17;;;15.50;99.40;;;;;;5079274;28;20073;-78
2022/04/14 11:41:50;;;;;;;2.15;1.17;;;15.50;99.90;;;;;;5089563;28;20032;-80
2022/04/14 11:44:24;;;;;;;2.35;1.13;;;15.50;99.90;;;;;;5075515;28;20105;-78
2022/04/14 11:46:53;;;;;;;4.60;1.83;;;15.50;99.90;;;;;;5114953;27;20513;-79
2022/04/14 11:49:25;;;;;;;5.75;1.73;;;15.70;99.90;;;;;;5069451;28;20286;-79
2022/04/14 11:51:53;;;;;;;3.60;1.70;;;15.70;99.90;;;;;;5078596;28;20386;-78
2022/04/14 11:54:31;;;;;;;4.60;1.55;;;15.70;99.90;;;;;;5094166;28;20120;-78
2022/04/14 11:57:09;;;;;;;4.90;1.77;;;15.80;98.10;;;;;;5080894;28;20072;-79
2022/04/14 11:59:37;;;;;;;5.80;1.63;;;15.80;99.90;;;;;;5052856;28;20255;-78
2022/04/14 12:02:11;;;;;;;2.50;0.73;;;15.90;99.90;;;;;;5115654;27;20088;-79
2022/04/14 12:04:42;;;;;;;1.70;0.93;;;15.90;99.90;;;;;;5082897;28;20051;-78
2022/04/14 12:07:08;;;;;;;2.35;1.13;;;15.80;99.90;;;;;;5077019;28;20067;-78
2022/04/14 12:09:34;;;;;;;2.70;0.90;;;15.80;99.90;;;;;;5077798;28;20106;-79
2022/04/14 12:12:17;;;;;;;1.52;0.75;;;15.70;99.90;;;;;;5082464;28;20040;-78
2022/04/14 12:14:55;;;;;;;1.88;0.80;;;15.70;98.90;;;;;;5067481;28;20103;-78
2022/04/14 12:17:22;;;;;;;1.58;0.60;;;15.70;98.90;;;;;;5112361;27;20524;-78
2022/04/14 12:20:07;;;;;;;2.95;0.80;;;15.70;99.90;;;;;;5090993;28;20036;-77
2022/04/14 12:22:34;;;;;;;2.97;1.00;;;15.70;96.10;;;;;;5075772;28;20516;-78
2022/04/14 12:25:02;;;;;;;2.17;0.82;;;15.80;99.90;;;;;;5058847;28;20135;-78
2022/04/14 12:27:34;;;;;;;1.20;0.60;;;15.80;99.90;;;;;;5095148;28;20040;-78
2022/04/14 12:30:09;;;;;;;2.15;0.85;;;15.90;99.90;;;;;;5081668;28;20051;-77
2022/04/14 12:32:35;;;;;;;1.40;0.68;;;16.00;99.40;;;;;;5075925;28;20036;-78
2022/04/14 12:35:06;;;;;;;1.25;0.50;;;16.00;99.90;;;;;;5075041;28;20040;-78
2022/04/14 12:37:39;;;;;;;1.38;0.50;;;16.00;99.90;;;;;;5106634;27;20085;-78
2022/04/14 12:40:11;;;;;;;1.05;0.70;;;16.00;95.50;;;;;;5069846;28;20044;-78
2022/04/14 12:42:39;;;;;;;2.40;0.80;;;16.00;98.20;;;;;;5066320;28;20044;-78
2022/04/14 12:45:06;;;;;;;2.85;0.82;;;16.10;99.90;;;;;;5057749;28;20032;-78
2022/04/14 12:47:32;;;;;;;1.95;0.70;;;16.20;99.90;;;;;;5067362;28;20047;-82
2022/04/14 12:49:59;;;;;;;1.27;0.50;;;16.30;99.90;;;;;;5103985;27;20501;-78